createdAt,value
2019-05-20T00:00:02.463Z,3.70
2019-05-20T00:02:31.567Z,3.60
2019-05-20T00:05:00.903Z,3.67
2019-05-20T00:07:29.972Z,3.17
2019-05-20T00:09:59.078Z,3.20
2019-05-20T00:12:28.190Z,3.80
2019-05-20T00:14:57.481Z,3.40
2019-05-20T00:17:26.528Z,3.63
2019-05-20T00:19:55.776Z,3.70
2019-05-20T00:22:25.047Z,3.13
2019-05-20T00:24:54.205Z,3.37
2019-05-20T00:27:23.573Z,3.10
2019-05-20T00:29:52.705Z,3.33
2019-05-20T00:32:21.938Z,3.77
2019-05-20T00:34:51.167Z,3.80
2019-05-20T00:37:20.292Z,3.40
2019-05-20T00:39:49.723Z,3.33
2019-05-20T00:42:18.814Z,3.50
2019-05-20T00:44:48.070Z,3.20
2019-05-20T00:47:17.565Z,3.87
2019-05-20T00:49:46.676Z,4.53
2019-05-20T00:52:15.754Z,4.50
2019-05-20T00:54:45.001Z,4.10
2019-05-20T00:57:14.100Z,3.80
2019-05-20T00:59:43.446Z,3.50
2019-05-20T01:02:12.602Z,4.00
2019-05-20T01:04:41.889Z,3.90
2019-05-20T01:07:11.061Z,3.67
2019-05-20T01:09:40.243Z,3.40
2019-05-20T01:12:09.707Z,4.07
2019-05-20T01:14:38.940Z,4.17
2019-05-20T01:17:08.204Z,3.70
2019-05-20T01:19:37.508Z,3.40
2019-05-20T01:22:06.599Z,4.50
2019-05-20T01:24:35.681Z,3.50
2019-05-20T01:27:04.783Z,4.00
2019-05-20T01:29:34.018Z,4.33
2019-05-20T01:32:03.636Z,3.93
2019-05-20T01:34:32.739Z,3.80
2019-05-20T01:37:01.878Z,4.20
2019-05-20T01:39:31.525Z,4.20
2019-05-20T01:42:00.894Z,3.83
2019-05-20T01:44:30.365Z,4.40
2019-05-20T01:46:59.494Z,4.30
2019-05-20T01:49:28.848Z,4.13
2019-05-20T01:51:58.019Z,4.37
2019-05-20T01:54:27.134Z,5.13
2019-05-20T01:56:56.411Z,4.50
2019-05-20T01:59:25.812Z,4.30
2019-05-20T02:01:54.916Z,5.13
2019-05-20T02:04:24.129Z,5.00
2019-05-20T02:06:53.474Z,5.20
2019-05-20T02:09:22.588Z,5.20
2019-05-20T02:11:51.852Z,5.50
2019-05-20T02:14:24.220Z,5.23
2019-05-20T02:16:53.279Z,4.77
2019-05-20T02:19:22.335Z,5.30
2019-05-20T02:21:51.639Z,5.50
2019-05-20T02:24:20.800Z,4.90
2019-05-20T02:26:50.098Z,6.40
2019-05-20T02:29:19.189Z,5.37
2019-05-20T02:31:48.365Z,6.23
2019-05-20T02:34:17.680Z,6.13
2019-05-20T02:36:46.874Z,7.33
2019-05-20T02:39:16.169Z,6.33
2019-05-20T02:41:45.266Z,6.17
2019-05-20T02:44:14.519Z,7.67
2019-05-20T02:46:43.798Z,8.30
2019-05-20T02:49:12.977Z,7.13
2019-05-20T02:51:42.239Z,6.70
2019-05-20T02:54:11.392Z,7.47
2019-05-20T02:56:40.576Z,7.40
2019-05-20T02:59:09.949Z,6.73
2019-05-20T03:01:39.088Z,8.40
2019-05-20T03:04:12.120Z,8.27
2019-05-20T03:06:39.485Z,7.80
2019-05-20T03:09:12.229Z,8.57
2019-05-20T03:11:39.455Z,8.27
2019-05-20T03:14:08.535Z,8.10
2019-05-20T03:16:37.635Z,9.73
2019-05-20T03:19:06.699Z,8.60
2019-05-20T03:21:35.858Z,8.70
2019-05-20T03:24:04.976Z,8.93
2019-05-20T03:26:34.289Z,8.90
2019-05-20T03:29:03.371Z,9.17
2019-05-20T03:31:32.701Z,10.83
2019-05-20T03:34:01.945Z,9.40
2019-05-20T03:36:31.112Z,10.50
2019-05-20T03:39:00.369Z,9.90
2019-05-20T03:41:29.626Z,10.43
2019-05-20T03:43:58.772Z,10.43
2019-05-20T03:46:28.075Z,10.80
2019-05-20T03:48:57.260Z,10.63
2019-05-20T03:51:26.495Z,11.70
2019-05-20T03:53:55.569Z,11.23
2019-05-20T03:56:24.875Z,12.30
2019-05-20T03:58:54.208Z,11.40
2019-05-20T04:01:23.373Z,10.40
2019-05-20T04:03:52.602Z,11.77
2019-05-20T04:06:21.752Z,12.40
2019-05-20T04:08:50.948Z,11.20
2019-05-20T04:11:20.293Z,11.87
2019-05-20T04:13:49.448Z,11.20
2019-05-20T04:16:18.704Z,12.07
2019-05-20T04:18:47.812Z,11.40
2019-05-20T04:21:17.077Z,13.00
2019-05-20T04:23:46.378Z,13.30
2019-05-20T04:26:15.522Z,13.63
2019-05-20T04:28:44.868Z,14.10
2019-05-20T04:31:13.983Z,14.47
2019-05-20T04:33:43.207Z,13.77
2019-05-20T04:36:12.496Z,13.00
2019-05-20T04:38:41.689Z,13.67
2019-05-20T04:41:10.896Z,13.77
2019-05-20T04:43:40.203Z,13.63
2019-05-20T04:46:09.438Z,13.07
2019-05-20T04:48:38.699Z,12.53
2019-05-20T04:51:07.784Z,12.63
2019-05-20T04:53:37.043Z,12.93
2019-05-20T04:56:06.277Z,13.30
2019-05-20T04:58:35.421Z,13.40
2019-05-20T05:01:04.761Z,14.43
2019-05-20T05:03:33.913Z,14.00
2019-05-20T05:06:03.037Z,13.80
2019-05-20T05:08:32.377Z,13.27
2019-05-20T05:11:01.472Z,14.07
2019-05-20T05:13:30.807Z,14.03
2019-05-20T05:15:59.972Z,12.67
2019-05-20T05:18:29.155Z,12.27
2019-05-20T05:20:58.497Z,12.70
2019-05-20T05:23:27.757Z,14.93
2019-05-20T05:25:56.913Z,13.40
2019-05-20T05:28:26.085Z,13.47
2019-05-20T05:30:55.266Z,13.87
2019-05-20T05:33:24.615Z,13.90
2019-05-20T05:35:54.017Z,13.67
2019-05-20T05:38:23.068Z,13.43
2019-05-20T05:40:52.249Z,13.43
2019-05-20T05:43:21.424Z,14.40
2019-05-20T05:45:50.761Z,14.90
2019-05-20T05:48:19.928Z,15.83
2019-05-20T05:50:49.203Z,14.43
2019-05-20T05:53:18.594Z,13.07
2019-05-20T05:55:47.722Z,14.83
2019-05-20T05:58:16.886Z,15.07
2019-05-20T06:00:46.023Z,14.83
2019-05-20T06:03:15.282Z,14.97
2019-05-20T06:05:44.434Z,16.40
2019-05-20T06:08:13.733Z,14.20
2019-05-20T06:10:42.883Z,14.10
2019-05-20T06:13:12.033Z,14.63
2019-05-20T06:15:41.394Z,15.10
2019-05-20T06:18:10.493Z,15.07
2019-05-20T06:20:39.713Z,14.67
2019-05-20T06:23:09.058Z,15.53
2019-05-20T06:25:38.193Z,15.60
2019-05-20T06:28:07.432Z,14.70
2019-05-20T06:30:42.093Z,15.60
2019-05-20T06:33:11.753Z,14.37
2019-05-20T06:35:41.085Z,14.30
2019-05-20T06:38:18.653Z,14.53
2019-05-20T06:40:47.736Z,14.03
2019-05-20T06:43:16.849Z,14.10
2019-05-20T06:45:45.946Z,14.60
2019-05-20T06:48:15.864Z,14.73
2019-05-20T06:50:45.135Z,14.13
2019-05-20T06:53:14.289Z,14.80
2019-05-20T06:55:43.564Z,15.80
2019-05-20T06:58:12.867Z,17.10
2019-05-20T07:00:42.379Z,16.10
2019-05-20T07:03:11.461Z,15.73
2019-05-20T07:05:40.539Z,15.53
2019-05-20T07:08:09.646Z,16.23
2019-05-20T07:10:38.701Z,15.30
2019-05-20T07:13:07.962Z,15.17
2019-05-20T07:15:37.416Z,18.00
2019-05-20T07:18:06.560Z,15.50
2019-05-20T07:20:35.690Z,16.07
2019-05-20T07:23:04.898Z,16.20
2019-05-20T07:25:34.128Z,16.40
2019-05-20T07:28:03.509Z,15.87
2019-05-20T07:30:32.637Z,15.83
2019-05-20T07:33:01.974Z,17.60
2019-05-20T07:35:31.368Z,14.50
2019-05-20T07:38:00.585Z,15.23
2019-05-20T07:40:33.434Z,15.23
2019-05-20T07:43:03.683Z,16.17
2019-05-20T07:45:35.353Z,16.33
2019-05-20T07:48:06.203Z,15.70
2019-05-20T07:50:37.332Z,14.50
2019-05-20T07:53:06.936Z,14.80
2019-05-20T07:55:40.925Z,15.10
2019-05-20T07:58:10.772Z,15.57
2019-05-20T08:00:39.934Z,16.23
2019-05-20T08:03:09.119Z,16.40
2019-05-20T08:05:38.253Z,15.80
2019-05-20T08:08:07.629Z,14.90
2019-05-20T08:10:36.736Z,14.77
2019-05-20T08:13:06.011Z,14.13
2019-05-20T08:15:35.301Z,14.50
2019-05-20T08:18:04.521Z,13.97
2019-05-20T08:20:33.697Z,15.23
2019-05-20T08:23:03.043Z,13.10
2019-05-20T08:25:32.160Z,14.63
2019-05-20T08:28:01.306Z,13.97
2019-05-20T08:30:33.714Z,14.43
2019-05-20T08:33:02.794Z,13.67
2019-05-20T08:35:32.103Z,13.33
2019-05-20T08:38:01.145Z,14.57
2019-05-20T08:40:30.230Z,13.67
2019-05-20T08:42:59.556Z,17.97
2019-05-20T08:45:28.915Z,14.23
2019-05-20T08:48:00.085Z,13.80
2019-05-20T08:50:29.179Z,15.47
2019-05-20T08:52:58.374Z,14.40
2019-05-20T08:55:27.684Z,13.83
2019-05-20T08:57:56.775Z,13.80
2019-05-20T09:00:26.373Z,14.20
2019-05-20T09:02:55.394Z,14.53
2019-05-20T09:05:27.851Z,14.33
2019-05-20T09:08:02.929Z,14.87
2019-05-20T09:10:26.901Z,15.50
2019-05-20T09:12:56.023Z,13.77
2019-05-20T09:15:25.240Z,15.13
2019-05-20T09:17:54.352Z,15.00
2019-05-20T09:20:23.846Z,15.70
2019-05-20T09:22:53.013Z,14.77
2019-05-20T09:25:31.329Z,14.60
2019-05-20T09:28:01.614Z,15.23
2019-05-20T09:30:30.692Z,14.53
2019-05-20T09:32:59.787Z,14.20
2019-05-20T09:35:29.027Z,14.43
2019-05-20T09:37:58.162Z,14.87
2019-05-20T09:40:41.004Z,15.20
2019-05-20T09:43:10.138Z,14.50
2019-05-20T09:45:39.285Z,15.23
2019-05-20T09:48:08.761Z,15.23
2019-05-20T09:50:37.779Z,14.00
2019-05-20T09:53:07.791Z,16.33
2019-05-20T09:55:37.310Z,14.80
2019-05-20T09:58:06.605Z,14.53
2019-05-20T10:00:35.868Z,15.43
2019-05-20T10:03:06.013Z,15.43
2019-05-20T10:05:37.470Z,15.00
2019-05-20T10:08:07.423Z,14.50
2019-05-20T10:10:36.744Z,15.77
2019-05-20T10:13:06.103Z,16.00
2019-05-20T10:15:35.343Z,13.63
2019-05-20T10:18:04.447Z,13.60
2019-05-20T10:20:33.591Z,14.53
2019-05-20T10:23:02.670Z,16.70
2019-05-20T10:25:31.756Z,17.30
2019-05-20T10:28:00.898Z,16.43
2019-05-20T10:30:30.240Z,16.13
2019-05-20T10:32:59.454Z,16.50
2019-05-20T10:35:28.727Z,16.07
2019-05-20T10:37:58.028Z,16.43
2019-05-20T10:40:29.093Z,14.77
2019-05-20T10:42:59.380Z,15.60
2019-05-20T10:45:30.400Z,16.60
2019-05-20T10:48:00.334Z,16.40
2019-05-20T10:50:29.760Z,18.33
2019-05-20T10:52:59.089Z,17.97
2019-05-20T10:55:28.325Z,15.27
2019-05-20T10:57:57.485Z,16.70
2019-05-20T11:00:28.634Z,17.83
2019-05-20T11:02:59.784Z,16.93
2019-05-20T11:05:30.762Z,16.80
2019-05-20T11:08:01.368Z,17.90
2019-05-20T11:10:31.374Z,18.17
2019-05-20T11:13:00.901Z,16.63
2019-05-20T11:15:30.016Z,18.40
2019-05-20T11:17:59.202Z,17.03
2019-05-20T11:20:28.419Z,18.60
2019-05-20T11:23:00.879Z,16.30
2019-05-20T11:25:28.785Z,15.07
2019-05-20T11:27:58.057Z,18.87
2019-05-20T11:30:27.298Z,17.10
2019-05-20T11:32:56.426Z,16.50
2019-05-20T11:35:25.681Z,16.70
2019-05-20T11:37:54.842Z,16.90
2019-05-20T11:40:24.049Z,18.10
2019-05-20T11:42:53.266Z,16.97
2019-05-20T11:45:22.391Z,16.77
2019-05-20T11:47:52.648Z,16.10
2019-05-20T11:50:21.874Z,17.30
2019-05-20T11:52:51.116Z,19.33
2019-05-20T11:55:20.328Z,20.87
2019-05-20T11:57:49.483Z,17.40
2019-05-20T12:00:18.971Z,18.80
2019-05-20T12:02:48.102Z,19.97
2019-05-20T12:05:17.498Z,20.57
2019-05-20T12:07:46.757Z,19.23
2019-05-20T12:10:16.250Z,21.10
2019-05-20T12:12:46.132Z,19.20
2019-05-20T12:15:16.452Z,20.00
2019-05-20T12:17:45.537Z,19.40
2019-05-20T12:20:14.738Z,19.37
2019-05-20T12:22:43.926Z,19.23
2019-05-20T12:25:13.022Z,19.40
2019-05-20T12:27:42.152Z,17.43
2019-05-20T12:30:11.557Z,18.07
2019-05-20T12:32:40.728Z,20.37
2019-05-20T12:35:10.389Z,20.30
2019-05-20T12:37:39.533Z,21.70
2019-05-20T12:40:08.980Z,19.20
2019-05-20T12:42:38.410Z,20.17
2019-05-20T12:45:09.910Z,20.70
2019-05-20T12:47:39.079Z,23.73
2019-05-20T12:50:09.383Z,22.33
2019-05-20T12:52:40.377Z,22.17
2019-05-20T12:55:10.349Z,21.80
2019-05-20T12:57:39.955Z,22.40
2019-05-20T13:00:10.071Z,20.17
2019-05-20T13:02:39.205Z,23.03
2019-05-20T13:05:08.642Z,19.37
2019-05-20T13:07:37.796Z,22.60
2019-05-20T13:10:25.950Z,20.87
2019-05-20T13:12:39.494Z,19.60
2019-05-20T13:15:08.952Z,21.73
2019-05-20T13:17:44.375Z,20.00
2019-05-20T13:20:10.425Z,22.03
2019-05-20T13:22:39.782Z,25.63
2019-05-20T13:25:08.971Z,24.60
2019-05-20T13:27:38.655Z,27.43
2019-05-20T13:30:08.221Z,26.87
2019-05-20T13:32:37.562Z,27.53
2019-05-20T13:35:06.706Z,26.57
2019-05-20T13:37:37.297Z,26.53
2019-05-20T13:40:06.470Z,27.37
2019-05-20T13:42:35.658Z,25.60
2019-05-20T13:45:04.880Z,26.83
2019-05-20T13:47:36.023Z,28.80
2019-05-20T13:50:07.645Z,25.73
2019-05-20T13:52:36.754Z,28.33
2019-05-20T13:55:05.964Z,29.20
2019-05-20T13:57:35.058Z,30.97
2019-05-20T14:00:04.268Z,27.03
2019-05-20T14:02:33.389Z,28.57
2019-05-20T14:05:02.524Z,27.37
2019-05-20T14:07:32.503Z,28.60
2019-05-20T14:10:01.795Z,30.03
2019-05-20T14:12:30.896Z,27.00
2019-05-20T14:15:00.272Z,26.50
2019-05-20T14:17:29.647Z,27.87
2019-05-20T14:19:58.977Z,26.70
2019-05-20T14:22:28.070Z,26.17
2019-05-20T14:24:57.165Z,24.63
2019-05-20T14:27:26.461Z,25.80
2019-05-20T14:29:55.608Z,25.80
2019-05-20T14:32:24.694Z,26.30
2019-05-20T14:34:54.318Z,26.10
2019-05-20T14:37:23.402Z,29.47
2019-05-20T14:39:52.483Z,28.20
2019-05-20T14:42:25.271Z,27.33
2019-05-20T14:44:52.791Z,24.80
2019-05-20T14:47:22.049Z,28.43
2019-05-20T14:49:51.525Z,26.33
2019-05-20T14:52:20.703Z,27.97
2019-05-20T14:54:49.900Z,28.27
2019-05-20T14:57:19.082Z,27.70
2019-05-20T14:59:48.541Z,29.10
2019-05-20T15:02:18.278Z,29.30
2019-05-20T15:04:47.575Z,26.93
2019-05-20T15:07:29.313Z,27.27
2019-05-20T15:09:51.777Z,26.70
2019-05-20T15:12:21.092Z,25.77
2019-05-20T15:14:50.283Z,29.03
2019-05-20T15:17:19.561Z,27.23
2019-05-20T15:19:48.619Z,29.70
2019-05-20T15:22:17.943Z,25.80
2019-05-20T15:24:47.128Z,27.27
2019-05-20T15:27:16.453Z,28.63
2019-05-20T15:29:45.582Z,28.50
2019-05-20T15:32:14.779Z,29.30
2019-05-20T15:34:44.057Z,27.30
2019-05-20T15:37:13.416Z,27.07
2019-05-20T15:39:42.550Z,30.03
2019-05-20T15:42:11.811Z,29.83
2019-05-20T15:44:40.900Z,30.00
2019-05-20T15:47:10.250Z,29.50
2019-05-20T15:49:39.384Z,28.10
2019-05-20T15:52:08.644Z,27.73
2019-05-20T15:54:37.783Z,26.93
2019-05-20T15:57:09.956Z,27.40
2019-05-20T15:59:46.178Z,27.33
2019-05-20T16:02:10.390Z,26.17
2019-05-20T16:04:39.645Z,27.47
2019-05-20T16:07:08.896Z,23.03
2019-05-20T16:09:38.070Z,23.30
2019-05-20T16:12:07.252Z,25.20
2019-05-20T16:14:36.525Z,24.00
2019-05-20T16:17:05.728Z,23.77
2019-05-20T16:19:34.946Z,24.03
2019-05-20T16:22:04.230Z,21.77
2019-05-20T16:24:33.365Z,20.83
2019-05-20T16:27:02.658Z,22.63
2019-05-20T16:29:31.807Z,21.77
2019-05-20T16:32:01.090Z,22.20
2019-05-20T16:34:30.211Z,22.07
2019-05-20T16:36:59.390Z,22.90
2019-05-20T16:39:30.969Z,21.17
2019-05-20T16:41:59.483Z,21.07
2019-05-20T16:44:28.606Z,21.10
2019-05-20T16:46:57.678Z,19.80
2019-05-20T16:49:26.793Z,20.90
2019-05-20T16:51:55.864Z,21.13
2019-05-20T16:54:25.131Z,20.70
2019-05-20T16:56:54.225Z,20.50
2019-05-20T16:59:23.355Z,21.60
2019-05-20T17:01:52.770Z,20.10
2019-05-20T17:04:21.934Z,19.40
2019-05-20T17:06:51.085Z,21.03
2019-05-20T17:09:21.438Z,19.63
2019-05-20T17:11:50.628Z,19.30
2019-05-20T17:14:22.049Z,18.57
2019-05-20T17:16:51.212Z,18.40
2019-05-20T17:19:20.355Z,19.30
2019-05-20T17:21:49.486Z,16.93
2019-05-20T17:24:18.648Z,17.70
2019-05-20T17:26:47.828Z,19.63
2019-05-20T17:29:17.179Z,20.57
2019-05-20T17:31:46.398Z,22.07
2019-05-20T17:34:15.585Z,22.77
2019-05-20T17:36:44.775Z,24.93
2019-05-20T17:39:14.151Z,25.83
2019-05-20T17:41:44.850Z,25.33
2019-05-20T17:44:14.473Z,25.70
2019-05-20T17:46:43.616Z,28.67
2019-05-20T17:49:12.797Z,29.30
2019-05-20T17:51:43.387Z,27.70
2019-05-20T17:54:12.720Z,28.73
2019-05-20T17:56:42.209Z,28.47
2019-05-20T17:59:11.723Z,29.47
2019-05-20T18:01:40.876Z,28.20
2019-05-20T18:04:10.041Z,27.17
2019-05-20T18:06:39.359Z,28.97
2019-05-20T18:09:09.091Z,28.93
2019-05-20T18:11:38.530Z,25.87
2019-05-20T18:14:07.735Z,30.90
2019-05-20T18:16:37.261Z,27.83
2019-05-20T18:19:06.477Z,28.40
2019-05-20T18:21:35.678Z,30.03
2019-05-20T18:24:04.853Z,27.70
2019-05-20T18:26:34.017Z,29.83
2019-05-20T18:29:03.446Z,32.97
2019-05-20T18:31:33.203Z,30.60
2019-05-20T18:34:02.619Z,31.43
2019-05-20T18:36:31.914Z,29.47
2019-05-20T18:39:01.183Z,31.00
2019-05-20T18:41:30.413Z,33.37
2019-05-20T18:43:59.533Z,32.03
2019-05-20T18:46:28.707Z,34.87
2019-05-20T18:48:57.986Z,31.23
2019-05-20T18:51:27.245Z,33.60
2019-05-20T18:53:56.413Z,34.20
2019-05-20T18:56:25.734Z,35.53
2019-05-20T18:58:55.094Z,33.60
2019-05-20T19:01:24.349Z,37.60
2019-05-20T19:03:53.473Z,37.20
2019-05-20T19:06:23.303Z,36.13
2019-05-20T19:08:52.669Z,38.57
2019-05-20T19:11:22.013Z,39.83
2019-05-20T19:13:51.322Z,41.53
2019-05-20T19:16:20.521Z,40.77
2019-05-20T19:18:50.600Z,42.13
2019-05-20T19:21:19.944Z,38.80
2019-05-20T19:23:49.042Z,43.23
2019-05-20T19:26:36.941Z,42.20
2019-05-20T19:29:06.096Z,43.87
2019-05-20T19:31:35.254Z,41.40
2019-05-20T19:34:04.463Z,43.67
2019-05-20T19:36:33.759Z,44.53
2019-05-20T19:39:02.943Z,43.63
2019-05-20T19:41:32.093Z,44.80
2019-05-20T19:44:01.339Z,42.03
2019-05-20T19:46:30.599Z,43.33
2019-05-20T19:48:59.934Z,43.50
2019-05-20T19:51:29.063Z,45.60
2019-05-20T19:53:58.215Z,42.43
2019-05-20T19:56:27.422Z,46.40
2019-05-20T19:58:56.629Z,46.90
2019-05-20T20:01:25.911Z,47.90
2019-05-20T20:03:55.084Z,45.80
2019-05-20T20:06:24.487Z,44.90
2019-05-20T20:08:53.715Z,46.87
2019-05-20T20:11:22.910Z,44.37
2019-05-20T20:13:52.133Z,42.87
2019-05-20T20:16:21.353Z,40.50
2019-05-20T20:18:50.485Z,39.27
2019-05-20T20:21:19.596Z,39.40
2019-05-20T20:23:48.933Z,38.60
2019-05-20T20:26:18.151Z,41.90
2019-05-20T20:28:47.283Z,41.13
2019-05-20T20:31:16.641Z,41.47
2019-05-20T20:33:45.890Z,39.00
2019-05-20T20:36:15.114Z,41.37
2019-05-20T20:38:44.292Z,40.10
2019-05-20T20:41:13.471Z,39.83
2019-05-20T20:43:42.737Z,39.20
2019-05-20T20:46:12.046Z,35.87
2019-05-20T20:48:42.033Z,36.37
2019-05-20T20:51:11.361Z,36.50
2019-05-20T20:53:40.668Z,39.03
2019-05-20T20:56:24.159Z,37.00
2019-05-20T20:58:40.928Z,34.97
2019-05-20T21:01:10.316Z,34.80
2019-05-20T21:03:39.495Z,37.30
2019-05-20T21:06:08.652Z,32.00
2019-05-20T21:08:38.041Z,35.17
2019-05-20T21:11:07.153Z,32.13
2019-05-20T21:13:36.315Z,36.83
2019-05-20T21:16:05.515Z,37.13
2019-05-20T21:18:34.741Z,37.37
2019-05-20T21:21:03.940Z,35.53
2019-05-20T21:23:33.113Z,36.10
2019-05-20T21:26:02.483Z,46.43
2019-05-20T21:28:31.579Z,36.17
2019-05-20T21:31:00.800Z,36.60
2019-05-20T21:33:29.960Z,34.27
2019-05-20T21:35:59.262Z,39.63
2019-05-20T21:38:28.479Z,38.40
2019-05-20T21:40:57.595Z,41.10
2019-05-20T21:43:26.992Z,43.60
2019-05-20T21:45:56.190Z,41.73
2019-05-20T21:48:25.580Z,39.37
2019-05-20T21:50:54.688Z,42.57
2019-05-20T21:53:23.863Z,38.60
2019-05-20T21:55:53.107Z,40.40
2019-05-20T21:58:22.192Z,40.57
2019-05-20T22:00:54.623Z,37.73
2019-05-20T22:03:25.048Z,40.23
2019-05-20T22:05:54.970Z,32.37
2019-05-20T22:08:24.131Z,33.97
2019-05-20T22:10:53.296Z,32.23
2019-05-20T22:13:22.400Z,27.93
2019-05-20T22:15:51.641Z,25.67
2019-05-20T22:18:20.974Z,25.87
2019-05-20T22:20:50.212Z,22.90
2019-05-20T22:23:39.688Z,25.17
2019-05-20T22:26:09.195Z,26.23
2019-05-20T22:28:38.284Z,25.93
2019-05-20T22:31:07.413Z,29.03
2019-05-20T22:33:41.345Z,26.63
2019-05-20T22:36:07.792Z,27.97
2019-05-20T22:38:37.239Z,30.13
2019-05-20T22:41:06.313Z,30.10
2019-05-20T22:43:35.459Z,29.10
2019-05-20T22:46:04.803Z,34.00
2019-05-20T22:48:34.003Z,32.63
2019-05-20T22:51:03.290Z,32.77
2019-05-20T22:53:32.459Z,33.03
2019-05-20T22:56:01.685Z,33.40
2019-05-20T22:58:30.962Z,34.33
2019-05-20T23:01:00.110Z,35.37
2019-05-20T23:03:29.341Z,34.57
2019-05-20T23:05:58.660Z,33.70
2019-05-20T23:08:27.775Z,36.57
2019-05-20T23:10:57.028Z,34.97
2019-05-20T23:13:26.212Z,33.20
2019-05-20T23:15:55.867Z,32.37
2019-05-20T23:18:24.932Z,33.27
2019-05-20T23:20:54.022Z,33.10
2019-05-20T23:23:23.117Z,36.47
2019-05-20T23:25:52.926Z,35.70
2019-05-20T23:28:22.516Z,36.07
2019-05-20T23:30:51.764Z,34.80
2019-05-20T23:33:21.104Z,37.07
2019-05-20T23:35:50.211Z,37.83
2019-05-20T23:38:19.429Z,35.23
2019-05-20T23:40:48.633Z,35.40
2019-05-20T23:43:17.739Z,35.83
2019-05-20T23:45:47.182Z,36.40
2019-05-20T23:48:16.261Z,37.43
2019-05-20T23:50:45.515Z,36.10
2019-05-20T23:53:14.763Z,36.03
2019-05-20T23:55:44.267Z,36.47
2019-05-20T23:58:13.367Z,35.80
